Time;durP1;ratioP1;P1;durP2;ratioP2;P2;SDS_P1;SDS_P2;PMS_P1;PMS_P2;Temp;Humidity;BMP_temperature;BMP_pressure;BME280_temperature;BME280_humidity;BME280_pressure;Samples;Min_cycle;Max_cycle;Signal;HPM_P1;HPM_P2
2023/06/19 00:00:18;;;;;;;7.97;7.15;;;;;;;21.37;50.08;98908.41;5046351;28;20045;-74
2023/06/19 00:02:45;;;;;;;9.73;8.73;;;;;;;21.33;50.07;98913.28;5045466;28;20045;-74
2023/06/19 00:05:11;;;;;;;12.57;7.60;;;;;;;21.28;50.37;98904.84;5046539;28;20049;-74
2023/06/19 00:07:40;;;;;;;10.07;7.57;;;;;;;21.31;50.22;98909.91;5046322;28;20045;-74
2023/06/19 00:10:07;;;;;;;9.93;8.80;;;;;;;21.27;50.22;98916.63;5046730;28;20041;-74
2023/06/19 00:12:34;;;;;;;9.65;8.65;;;;;;;20.86;50.45;98853.63;5046107;28;20049;-74
2023/06/19 00:15:01;;;;;;;8.43;7.47;;;;;;;21.23;50.19;98909.03;5046075;28;20038;-74
2023/06/19 00:17:28;;;;;;;9.02;7.90;;;;;;;20.67;50.54;98833.19;5047105;28;20314;-73
2023/06/19 00:19:55;;;;;;;9.02;7.30;;;;;;;21.21;50.42;98911.88;5045118;28;20053;-74
2023/06/19 00:22:22;;;;;;;8.32;7.05;;;;;;;21.18;50.29;98901.44;5045094;28;20045;-74
2023/06/19 00:24:51;;;;;;;9.13;7.30;;;;;;;21.16;50.49;98902.59;5046501;28;20181;-74
2023/06/19 00:27:18;;;;;;;8.20;7.40;;;;;;;18.72;50.45;98514.69;5045024;28;20069;-74
2023/06/19 00:29:45;;;;;;;8.18;7.38;;;;;;;21.12;50.88;98904.78;5044230;28;20100;-74
2023/06/19 00:32:12;;;;;;;8.38;7.57;;;;;;;21.07;50.95;98912.50;5046122;28;20193;-74
2023/06/19 00:34:39;;;;;;;8.52;7.20;;;;;;;21.04;51.01;98897.50;5045197;28;20072;-74
2023/06/19 00:37:06;;;;;;;9.00;7.43;;;;;;;21.00;51.44;98911.44;5045969;28;20079;-74
2023/06/19 00:39:32;;;;;;;8.82;7.53;;;;;;;20.97;51.46;98907.22;5045559;28;20061;-75
2023/06/19 00:42:00;;;;;;;10.93;7.97;;;;;;;20.94;51.90;98909.38;5045903;28;20075;-74
2023/06/19 00:44:27;;;;;;;10.65;7.10;;;;;;;20.88;52.08;98918.94;5046460;28;20214;-73
2023/06/19 00:46:58;;;;;;;9.55;8.65;;;;;;;20.90;51.69;98913.41;5045608;28;20045;-73
2023/06/19 00:49:26;;;;;;;8.75;7.85;;;;;;;20.88;51.81;98931.56;5045582;28;20049;-74
2023/06/19 00:51:53;;;;;;;10.02;8.27;;;;;;;20.86;52.03;98912.03;5045514;28;20201;-74
2023/06/19 00:54:20;;;;;;;9.07;7.45;;;;;;;20.82;52.10;98917.75;5046041;28;20329;-74
2023/06/19 00:56:47;;;;;;;8.27;7.40;;;;;;;20.52;52.42;98877.00;5046019;28;20053;-74
2023/06/19 00:59:17;;;;;;;9.80;8.38;;;;;;;20.78;52.32;98915.53;5045364;28;20033;-74
2023/06/19 01:01:44;;;;;;;9.40;8.35;;;;;;;20.73;52.36;98907.94;5045953;28;20037;-74
2023/06/19 01:04:11;;;;;;;8.25;7.43;;;;;;;20.71;52.24;98920.72;5044530;28;20178;-72
2023/06/19 01:06:46;;;;;;;9.40;7.72;;;;;;;20.72;52.33;98916.16;5045162;28;20041;-72
2023/06/19 01:09:16;;;;;;;13.45;8.52;;;;;;;20.70;52.63;98918.19;5045258;28;20049;-72
2023/06/19 01:11:47;;;;;;;8.05;7.25;;;;;;;20.71;52.77;98912.63;5045575;28;20037;-72
2023/06/19 01:14:19;;;;;;;8.77;7.88;;;;;;;20.66;52.96;98917.66;5045752;28;20049;-72
2023/06/19 01:16:47;;;;;;;9.27;8.05;;;;;;;20.62;52.75;98921.66;5045320;28;20096;-72
2023/06/19 01:19:20;;;;;;;11.38;7.95;;;;;;;20.65;52.33;98926.72;5045754;28;20063;-72
2023/06/19 01:21:47;;;;;;;8.52;7.45;;;;;;;20.53;52.32;98892.16;5044403;28;20049;-73
2023/06/19 01:24:16;;;;;;;8.02;7.22;;;;;;;20.65;52.38;98913.28;5045746;28;20053;-72
2023/06/19 01:26:45;;;;;;;8.05;7.22;;;;;;;20.60;52.65;98914.75;5045182;28;20043;-72
2023/06/19 01:29:13;;;;;;;10.52;8.27;;;;;;;20.60;52.76;98917.44;5045192;28;20049;-72
2023/06/19 01:31:46;;;;;;;9.18;8.20;;;;;;;20.55;53.06;98915.22;5045361;28;20060;-71
2023/06/19 01:34:16;;;;;;;9.30;8.38;;;;;;;20.50;53.10;98913.00;5044315;28;20041;-73
2023/06/19 01:36:43;;;;;;;9.27;8.27;;;;;;;20.46;53.17;98905.41;5045265;28;20108;-72
2023/06/19 01:39:13;;;;;;;8.60;7.70;;;;;;;20.44;53.38;98915.50;5043978;28;20062;-73
2023/06/19 01:41:43;;;;;;;8.07;7.32;;;;;;;20.42;53.50;98907.56;5047570;28;20041;-73
2023/06/19 01:44:10;;;;;;;9.40;7.78;;;;;;;20.39;53.71;98898.97;5048071;28;20046;-73
2023/06/19 01:46:37;;;;;;;8.90;8.00;;;;;;;20.38;53.62;98906.19;5048056;28;20095;-74
2023/06/19 01:49:07;;;;;;;8.88;7.22;;;;;;;20.36;53.72;98888.53;5047977;28;20033;-73
2023/06/19 01:51:34;;;;;;;11.50;8.18;;;;;;;20.31;53.96;98896.22;5049066;28;20301;-73
2023/06/19 01:54:01;;;;;;;9.38;7.90;;;;;;;20.34;53.96;98901.28;5049294;28;20045;-74
2023/06/19 01:56:28;;;;;;;9.65;8.05;;;;;;;20.26;54.16;98899.38;5048471;28;20256;-73
2023/06/19 01:58:56;;;;;;;9.00;7.63;;;;;;;20.28;53.90;98893.84;5049137;28;20041;-73
2023/06/19 02:01:23;;;;;;;9.07;8.23;;;;;;;20.30;53.93;98905.31;5048891;28;20045;-74
2023/06/19 02:03:50;;;;;;;9.50;8.18;;;;;;;20.25;54.36;98902.22;5048796;28;20037;-74
2023/06/19 02:06:16;;;;;;;9.05;7.18;;;;;;;20.19;54.41;98909.06;5047931;28;20336;-74
2023/06/19 02:08:43;;;;;;;9.00;7.90;;;;;;;20.09;54.65;98905.59;5048420;28;20041;-74
2023/06/19 02:11:10;;;;;;;8.38;7.35;;;;;;;20.05;54.80;98902.38;5048935;28;20041;-74
2023/06/19 02:13:37;;;;;;;8.50;7.70;;;;;;;20.06;54.76;98906.75;5047554;28;20305;-73
2023/06/19 02:16:05;;;;;;;8.90;7.03;;;;;;;20.12;54.51;98898.06;5047475;28;20096;-73
2023/06/19 02:18:32;;;;;;;7.43;6.72;;;;;;;17.69;54.15;98499.09;5048806;28;20052;-73
2023/06/19 02:20:59;;;;;;;7.90;7.10;;;;;;;20.14;53.97;98904.13;5048393;28;20045;-73
2023/06/19 02:23:26;;;;;;;8.95;8.05;;;;;;;19.43;54.10;98791.25;5048371;28;20049;-73
2023/06/19 02:25:52;;;;;;;9.02;7.25;;;;;;;20.06;53.97;98914.00;5048695;28;20221;-73
2023/06/19 02:28:19;;;;;;;7.55;6.85;;;;;;;20.02;53.91;98908.06;5048360;28;20240;-73
2023/06/19 02:30:46;;;;;;;7.72;6.93;;;;;;;19.99;53.98;98913.75;5048082;28;20029;-73
2023/06/19 02:33:14;;;;;;;8.45;7.57;;;;;;;19.96;54.37;98910.53;5047149;28;20048;-74
2023/06/19 02:35:41;;;;;;;7.72;7.00;;;;;;;19.95;54.29;98914.22;5047932;28;20265;-74
2023/06/19 02:38:08;;;;;;;9.10;8.20;;;;;;;19.92;54.19;98909.16;5047076;28;20069;-73
2023/06/19 02:40:35;;;;;;;9.18;8.27;;;;;;;19.93;54.17;98908.16;5047655;28;20054;-73
2023/06/19 02:43:02;;;;;;;8.57;7.75;;;;;;;19.86;54.13;98906.09;5047478;28;20046;-73
2023/06/19 02:45:28;;;;;;;8.32;7.47;;;;;;;19.86;54.50;98902.56;5047718;28;20040;-73
2023/06/19 02:47:55;;;;;;;8.60;7.38;;;;;;;19.83;54.35;98908.25;5047702;28;20225;-73
2023/06/19 02:50:23;;;;;;;9.10;7.80;;;;;;;19.79;54.50;98902.28;5047652;28;20049;-73
2023/06/19 02:52:50;;;;;;;7.65;6.85;;;;;;;19.81;54.43;98899.47;5046962;28;20049;-73
2023/06/19 02:55:17;;;;;;;8.90;8.00;;;;;;;19.75;54.49;98906.28;5047598;28;20038;-73
2023/06/19 02:57:44;;;;;;;9.13;8.13;;;;;;;19.78;54.64;98899.75;5048101;28;20055;-73
2023/06/19 03:00:12;;;;;;;7.65;6.75;;;;;;;19.75;54.95;98908.97;5047943;28;20083;-73
2023/06/19 03:02:43;;;;;;;9.85;7.75;;;;;;;19.76;54.79;98912.50;5047973;28;20072;-73
2023/06/19 03:05:10;;;;;;;8.30;7.10;;;;;;;19.73;54.74;98912.81;5047392;28;20053;-73
2023/06/19 03:07:38;;;;;;;8.48;7.13;;;;;;;19.72;55.45;98916.50;5047656;28;20227;-73
2023/06/19 03:10:06;;;;;;;8.75;7.85;;;;;;;19.65;55.31;98918.13;5046533;28;20037;-73
2023/06/19 03:12:32;;;;;;;11.93;8.30;;;;;;;19.68;55.46;98915.97;5047274;28;20343;-73
2023/06/19 03:14:59;;;;;;;10.15;8.43;;;;;;;19.71;55.32;98922.88;5046411;28;20033;-73
2023/06/19 03:17:26;;;;;;;9.30;8.23;;;;;;;19.70;55.30;98916.66;5046301;28;20033;-74
2023/06/19 03:19:52;;;;;;;10.05;7.97;;;;;;;19.66;55.92;98915.28;5046990;28;20088;-73
2023/06/19 03:22:20;;;;;;;9.25;8.02;;;;;;;19.30;55.86;98859.78;5046712;28;20224;-73
2023/06/19 03:24:49;;;;;;;11.15;8.30;;;;;;;19.65;55.78;98915.44;5047057;28;20091;-73
2023/06/19 03:27:15;;;;;;;9.65;8.35;;;;;;;19.65;56.24;98913.59;5046951;28;20064;-73
2023/06/19 03:29:42;;;;;;;9.65;8.68;;;;;;;19.67;55.92;98919.66;5047199;28;20041;-73
2023/06/19 03:32:09;;;;;;;11.73;9.55;;;;;;;19.61;56.61;98922.09;5047127;28;20041;-73
2023/06/19 03:34:36;;;;;;;10.57;9.13;;;;;;;19.59;56.36;98929.47;5045964;28;20046;-73
2023/06/19 03:37:02;;;;;;;11.45;10.27;;;;;;;19.57;56.81;98929.63;5045983;28;20037;-74
2023/06/19 03:39:29;;;;;;;12.15;10.27;;;;;;;19.58;56.81;98935.84;5046434;28;20045;-74
2023/06/19 03:41:57;;;;;;;11.65;10.43;;;;;;;19.54;56.84;98933.47;5045860;28;20045;-73
2023/06/19 03:44:24;;;;;;;10.48;8.70;;;;;;;19.58;57.00;98927.78;5047148;28;20051;-73
2023/06/19 03:46:51;;;;;;;10.35;9.35;;;;;;;19.46;56.81;98903.81;5045686;28;20045;-73
2023/06/19 03:49:18;;;;;;;8.98;8.18;;;;;;;19.55;57.07;98920.88;5045703;28;20042;-73
2023/06/19 03:51:44;;;;;;;10.32;8.85;;;;;;;19.52;57.38;98921.19;5046789;28;20068;-74
2023/06/19 03:54:11;;;;;;;9.65;8.18;;;;;;;18.73;57.42;98790.16;5046873;28;20041;-73
2023/06/19 03:56:39;;;;;;;9.15;8.25;;;;;;;19.51;57.56;98927.53;5046943;28;20049;-74
2023/06/19 03:59:07;;;;;;;16.27;9.10;;;;;;;19.53;57.46;98934.47;5046572;28;20095;-73
2023/06/19 04:01:34;;;;;;;12.48;9.00;;;;;;;19.52;58.02;98923.88;5046852;28;20037;-73
2023/06/19 04:04:01;;;;;;;10.85;8.48;;;;;;;19.52;57.86;98924.72;5045578;28;20046;-73
2023/06/19 04:06:28;;;;;;;9.77;8.82;;;;;;;19.51;57.91;98932.91;5046528;28;20099;-74
2023/06/19 04:08:54;;;;;;;12.15;9.73;;;;;;;19.55;58.08;98934.31;5046588;28;20041;-73
2023/06/19 04:11:21;;;;;;;22.92;9.48;;;;;;;19.57;58.28;98935.00;5046355;28;20293;-73
2023/06/19 04:13:48;;;;;;;18.50;10.10;;;;;;;19.54;58.25;98932.63;5046604;28;20049;-74
2023/06/19 04:16:16;;;;;;;12.52;9.48;;;;;;;19.57;58.13;98935.00;5046413;28;20041;-73
2023/06/19 04:18:43;;;;;;;13.02;9.15;;;;;;;19.29;58.14;98893.00;5045306;28;20068;-73
2023/06/19 04:21:09;;;;;;;11.65;9.23;;;;;;;19.61;57.85;98935.53;5045883;28;20057;-73
2023/06/19 04:23:36;;;;;;;19.50;10.07;;;;;;;19.59;58.30;98943.75;5046180;28;20037;-74
2023/06/19 04:26:03;;;;;;;14.55;9.50;;;;;;;19.58;58.31;98944.75;5045021;28;20046;-73
2023/06/19 04:28:29;;;;;;;15.43;9.25;;;;;;;19.58;58.31;98942.06;5044849;28;20042;-73
2023/06/19 04:31:00;;;;;;;15.30;10.55;;;;;;;19.60;58.34;98942.75;5044918;28;20038;-73
2023/06/19 04:33:28;;;;;;;10.57;9.48;;;;;;;17.58;58.10;98802.88;5045768;28;20052;-73
2023/06/19 04:35:54;;;;;;;12.10;9.93;;;;;;;19.62;58.24;98946.16;5046247;28;20041;-74
2023/06/19 04:38:23;;;;;;;11.05;9.25;;;;;;;19.67;58.04;98953.75;5044485;28;20044;-73
2023/06/19 04:40:50;;;;;;;16.15;11.65;;;;;;;19.69;58.17;98955.28;5045575;28;20099;-74
2023/06/19 04:43:17;;;;;;;13.05;10.57;;;;;;;19.72;57.99;98959.53;5045554;28;20242;-74
2023/06/19 04:45:44;;;;;;;11.23;10.02;;;;;;;19.74;57.98;98965.59;5045761;28;20041;-74
2023/06/19 04:48:11;;;;;;;11.90;10.70;;;;;;;19.71;58.36;98960.53;5045301;28;20099;-73
2023/06/19 04:50:39;;;;;;;10.77;9.68;;;;;;;19.78;58.02;98962.44;5044491;28;20044;-73
2023/06/19 04:53:06;;;;;;;14.38;11.05;;;;;;;19.79;58.01;98968.66;5045470;28;20363;-73
2023/06/19 04:55:33;;;;;;;11.70;10.45;;;;;;;19.66;58.23;98950.22;5045377;28;20264;-73
2023/06/19 04:57:59;;;;;;;12.30;11.00;;;;;;;19.33;58.16;98889.88;5044568;28;20049;-73
2023/06/19 05:00:26;;;;;;;13.90;11.77;;;;;;;19.90;57.98;98968.47;5045866;28;20052;-73
2023/06/19 05:02:53;;;;;;;11.80;9.98;;;;;;;19.90;57.75;98971.16;5045957;28;20054;-74
2023/06/19 05:05:20;;;;;;;11.45;10.25;;;;;;;19.93;57.87;98978.09;5045916;28;20061;-73
2023/06/19 05:07:48;;;;;;;11.45;10.27;;;;;;;19.97;57.74;98974.94;5045362;28;20045;-73
2023/06/19 05:10:15;;;;;;;12.88;11.00;;;;;;;19.80;57.28;98949.72;5044476;28;20041;-74
2023/06/19 05:12:42;;;;;;;10.80;9.65;;;;;;;19.95;56.96;98974.25;5045513;28;20048;-73
2023/06/19 05:15:09;;;;;;;11.63;10.43;;;;;;;19.97;56.89;98971.41;5045215;28;20039;-73
2023/06/19 05:17:38;;;;;;;11.73;10.30;;;;;;;19.99;57.25;98978.31;5048418;28;20049;-74
2023/06/19 05:20:08;;;;;;;12.23;10.73;;;;;;;20.06;56.81;98978.56;5049520;28;20100;-73
2023/06/19 05:22:34;;;;;;;12.18;9.77;;;;;;;20.09;56.75;98967.47;5049478;28;20041;-73
2023/06/19 05:25:02;;;;;;;11.07;9.90;;;;;;;20.06;56.85;98974.00;5049260;28;20045;-74
2023/06/19 05:27:29;;;;;;;13.43;11.23;;;;;;;20.05;56.72;98974.16;5049490;28;20453;-73
2023/06/19 05:29:56;;;;;;;13.73;10.68;;;;;;;19.93;56.67;98981.63;5049711;28;20037;-73
2023/06/19 05:32:23;;;;;;;13.13;10.77;;;;;;;20.07;56.61;98972.16;5048223;28;20045;-74
2023/06/19 05:34:49;;;;;;;12.77;10.63;;;;;;;18.86;55.86;98758.44;5049075;28;20056;-73
2023/06/19 05:37:16;;;;;;;11.43;9.60;;;;;;;20.19;55.68;98974.47;5049064;28;20209;-74
2023/06/19 05:39:43;;;;;;;12.05;10.55;;;;;;;20.20;56.09;98969.94;5047710;28;20050;-74
2023/06/19 05:42:12;;;;;;;11.05;9.93;;;;;;;20.02;55.29;98940.34;5048846;28;20204;-73
2023/06/19 05:44:40;;;;;;;15.63;10.55;;;;;;;20.26;55.50;98973.88;5049173;28;20064;-74
2023/06/19 05:47:07;;;;;;;15.63;10.68;;;;;;;20.28;55.29;98985.34;5049290;28;20301;-73
2023/06/19 05:49:34;;;;;;;10.48;9.38;;;;;;;20.31;55.31;98985.03;5047677;28;20124;-73
2023/06/19 05:52:01;;;;;;;13.10;10.77;;;;;;;20.34;55.12;98984.72;5047744;28;20039;-74
2023/06/19 05:54:28;;;;;;;10.65;9.65;;;;;;;20.35;54.59;98979.19;5049240;28;20282;-74
2023/06/19 05:56:54;;;;;;;11.60;10.40;;;;;;;20.35;53.99;98979.19;5049229;28;20037;-74
2023/06/19 05:59:22;;;;;;;13.15;10.25;;;;;;;20.37;53.71;98973.63;5049177;28;20045;-74
2023/06/19 06:01:50;;;;;;;12.88;10.02;;;;;;;20.35;53.26;98984.56;5049005;28;20059;-73
2023/06/19 06:04:17;;;;;;;11.18;9.52;;;;;;;20.38;53.27;98976.19;5048820;28;20332;-74
2023/06/19 06:06:44;;;;;;;11.63;10.40;;;;;;;20.37;53.32;98982.56;5048451;28;20249;-73
2023/06/19 06:09:12;;;;;;;10.27;9.18;;;;;;;20.43;53.22;98990.00;5048976;28;20045;-73
2023/06/19 06:11:38;;;;;;;11.07;9.57;;;;;;;20.48;53.08;98984.16;5048344;28;20065;-73
2023/06/19 06:14:05;;;;;;;10.68;9.45;;;;;;;20.49;53.07;98986.69;5047508;28;20084;-73
2023/06/19 06:16:33;;;;;;;10.90;9.90;;;;;;;20.50;52.57;98993.78;5048596;28;20045;-73
2023/06/19 06:19:00;;;;;;;12.73;8.60;;;;;;;20.56;51.83;98991.44;5047268;28;20175;-74
2023/06/19 06:21:27;;;;;;;11.07;9.70;;;;;;;20.53;52.13;98989.91;5047084;28;20047;-74
2023/06/19 06:23:54;;;;;;;12.13;10.23;;;;;;;20.59;51.66;98991.97;5048530;28;20055;-73
2023/06/19 06:26:21;;;;;;;13.15;9.93;;;;;;;20.64;51.89;98994.19;5048097;28;20045;-74
2023/06/19 06:28:48;;;;;;;10.48;8.63;;;;;;;20.67;51.48;99002.81;5046829;28;20041;-73
2023/06/19 06:31:15;;;;;;;10.02;9.02;;;;;;;20.61;50.56;99005.28;5046930;28;20060;-74
2023/06/19 06:33:43;;;;;;;8.73;7.57;;;;;;;20.64;51.01;99008.50;5046996;28;20088;-72
2023/06/19 06:36:10;;;;;;;9.60;7.85;;;;;;;20.72;50.60;99008.56;5047880;28;20041;-73
2023/06/19 06:38:37;;;;;;;9.70;8.35;;;;;;;20.70;50.91;99007.88;5048125;28;20129;-74
2023/06/19 06:41:04;;;;;;;9.73;7.85;;;;;;;20.01;51.02;98874.09;5046827;28;20057;-73
2023/06/19 06:43:30;;;;;;;9.48;8.52;;;;;;;20.85;51.01;99001.91;5048002;28;20049;-74
2023/06/19 06:45:57;;;;;;;10.02;9.13;;;;;;;20.82;50.68;99003.94;5047742;28;20120;-73
2023/06/19 06:48:24;;;;;;;9.57;8.63;;;;;;;20.84;50.19;99001.06;5047679;28;20041;-73
2023/06/19 06:50:58;;;;;;;10.48;8.90;;;;;;;20.92;50.27;99003.81;5048189;28;20053;-73
2023/06/19 06:53:25;;;;;;;11.15;8.85;;;;;;;20.93;49.84;99002.81;5046709;28;20045;-73
2023/06/19 06:55:52;;;;;;;10.20;8.40;;;;;;;21.05;49.73;98998.03;5047509;28;20045;-73
2023/06/19 06:58:19;;;;;;;11.48;7.88;;;;;;;20.99;49.73;98977.09;5047525;28;20045;-74
2023/06/19 07:00:46;;;;;;;8.20;6.72;;;;;;;21.21;49.79;99010.75;5047664;28;20049;-73
2023/06/19 07:03:13;;;;;;;11.05;8.52;;;;;;;21.21;49.75;99005.38;5046455;28;20209;-74
2023/06/19 07:05:39;;;;;;;10.95;7.88;;;;;;;21.27;49.49;99000.19;5046574;28;20080;-74
2023/06/19 07:08:08;;;;;;;16.17;8.75;;;;;;;21.34;49.06;99003.06;5046430;28;20049;-73
2023/06/19 07:10:34;;;;;;;8.27;7.20;;;;;;;21.39;48.93;99006.97;5046448;28;20038;-73
2023/06/19 07:13:01;;;;;;;9.43;7.90;;;;;;;21.49;48.66;99000.59;5047239;28;20191;-72
2023/06/19 07:15:28;;;;;;;8.80;7.78;;;;;;;21.68;48.68;99000.34;5047090;28;20099;-74
2023/06/19 07:17:54;;;;;;;8.43;7.15;;;;;;;21.81;48.83;99005.28;5047338;28;20051;-74
2023/06/19 07:20:21;;;;;;;9.45;8.10;;;;;;;21.86;48.54;99006.50;5046054;28;20051;-74
2023/06/19 07:22:48;;;;;;;8.70;7.80;;;;;;;22.01;47.57;99004.00;5047286;28;20053;-74
2023/06/19 07:25:16;;;;;;;8.95;8.05;;;;;;;22.22;47.95;99007.06;5046139;28;20041;-74
2023/06/19 07:27:44;;;;;;;10.77;7.57;;;;;;;21.88;47.26;98918.16;5047045;28;20045;-73
2023/06/19 07:30:11;;;;;;;11.30;7.53;;;;;;;22.58;46.90;99006.78;5045950;28;20041;-73
2023/06/19 07:32:38;;;;;;;8.55;7.70;;;;;;;22.50;46.56;99007.63;5047067;28;20169;-73
2023/06/19 07:35:07;;;;;;;7.75;6.97;;;;;;;22.53;46.73;99001.88;5046918;28;20175;-73
2023/06/19 07:37:34;;;;;;;14.75;7.85;;;;;;;22.79;45.59;99000.88;5046765;28;20359;-74
2023/06/19 07:40:00;;;;;;;7.95;7.22;;;;;;;22.94;45.10;99001.84;5046220;28;20045;-74
2023/06/19 07:42:29;;;;;;;9.68;7.88;;;;;;;22.78;45.64;99005.44;5046706;28;20302;-74
2023/06/19 07:44:55;;;;;;;11.30;8.00;;;;;;;23.15;45.25;99002.16;5046839;28;20056;-73
2023/06/19 07:47:22;;;;;;;8.10;7.20;;;;;;;23.44;45.09;98996.16;5046538;28;20132;-73
2023/06/19 07:49:49;;;;;;;9.30;7.45;;;;;;;23.42;44.65;99000.06;5046598;28;20061;-74
2023/06/19 07:52:15;;;;;;;8.32;7.43;;;;;;;23.60;44.36;98995.25;5046774;28;20100;-73
2023/06/19 07:54:51;;;;;;;10.45;7.90;;;;;;;23.88;42.63;98991.03;5046874;28;20042;-73
2023/06/19 07:57:18;;;;;;;9.50;7.32;;;;;;;23.87;42.97;98985.81;5046335;28;20050;-73
2023/06/19 07:59:46;;;;;;;8.45;7.43;;;;;;;24.10;43.52;98989.41;5046268;28;20053;-73
2023/06/19 08:02:13;;;;;;;10.10;6.97;;;;;;;24.43;42.60;98997.28;5046600;28;20087;-73
2023/06/19 08:04:40;;;;;;;8.35;7.35;;;;;;;24.64;42.05;98990.16;5046506;28;20076;-73
2023/06/19 08:07:07;;;;;;;11.10;8.43;;;;;;;24.87;42.15;98998.28;5046373;28;20052;-73
2023/06/19 08:09:34;;;;;;;8.90;7.60;;;;;;;24.95;40.97;98994.63;5046453;28;20052;-73
2023/06/19 08:12:01;;;;;;;7.97;6.85;;;;;;;24.98;40.97;98996.97;5046003;28;20099;-73
2023/06/19 08:14:28;;;;;;;8.35;7.45;;;;;;;25.02;40.59;98998.31;5045732;28;20187;-73
2023/06/19 08:16:56;;;;;;;8.60;7.53;;;;;;;25.04;40.43;98998.13;5046277;28;20045;-73
2023/06/19 08:19:23;;;;;;;9.80;7.88;;;;;;;25.15;40.51;98992.25;5045899;28;20049;-73
2023/06/19 08:21:50;;;;;;;7.40;6.70;;;;;;;23.33;40.43;98702.69;5046403;28;20041;-73
2023/06/19 08:24:17;;;;;;;8.82;6.70;;;;;;;25.24;40.43;98986.53;5046414;28;20049;-73
2023/06/19 08:26:43;;;;;;;11.48;7.82;;;;;;;25.58;40.05;98987.88;5045640;28;20221;-73
2023/06/19 08:29:10;;;;;;;8.40;6.93;;;;;;;25.02;40.79;98987.47;5044921;28;20091;-73
2023/06/19 08:31:37;;;;;;;10.35;7.25;;;;;;;25.32;40.58;98988.34;5046325;28;20051;-73
2023/06/19 08:34:09;;;;;;;9.23;7.20;;;;;;;25.62;40.46;98988.31;5045062;28;20041;-73
2023/06/19 08:36:36;;;;;;;9.63;8.00;;;;;;;25.53;40.86;98984.88;5045950;28;20108;-73
2023/06/19 08:39:03;;;;;;;12.95;7.90;;;;;;;25.93;40.70;98988.91;5045514;28;20061;-73
2023/06/19 08:41:30;;;;;;;12.18;8.63;;;;;;;26.06;41.00;98991.81;5045838;28;20286;-73
2023/06/19 08:43:57;;;;;;;12.18;8.63;;;;;;;26.18;40.36;99001.13;5045592;28;20047;-73
2023/06/19 08:46:24;;;;;;;9.52;8.48;;;;;;;26.39;40.26;99004.88;5045850;28;20120;-73
2023/06/19 08:48:51;;;;;;;14.13;9.13;;;;;;;26.60;39.79;98998.59;5045450;28;20254;-73
2023/06/19 08:51:19;;;;;;;9.95;8.95;;;;;;;26.74;40.19;98997.69;5045228;28;20045;-73
2023/06/19 08:53:47;;;;;;;12.82;9.63;;;;;;;26.92;39.68;99002.63;5046041;28;20304;-72
2023/06/19 08:56:14;;;;;;;11.55;9.98;;;;;;;26.97;38.97;99000.16;5045433;28;20049;-73
2023/06/19 08:58:41;;;;;;;11.27;9.07;;;;;;;27.06;39.03;99005.25;5045488;28;20048;-73
2023/06/19 09:01:08;;;;;;;9.85;8.35;;;;;;;27.11;38.93;99002.78;5045629;28;20041;-73
2023/06/19 09:03:35;;;;;;;16.30;8.93;;;;;;;27.14;38.11;99004.25;5045833;28;20049;-73
2023/06/19 09:06:04;;;;;;;9.60;8.55;;;;;;;27.26;38.65;98997.25;5045594;28;20316;-73
2023/06/19 09:08:32;;;;;;;10.85;9.85;;;;;;;27.34;38.07;98986.22;5045179;28;20366;-73
2023/06/19 09:11:00;;;;;;;12.85;9.23;;;;;;;27.53;37.88;99000.97;5045349;28;20058;-73
2023/06/19 09:13:28;;;;;;;9.57;8.68;;;;;;;27.65;37.67;99006.69;5045550;28;20297;-73
2023/06/19 09:16:01;;;;;;;10.23;8.68;;;;;;;27.62;37.54;99002.50;5045158;28;20045;-73
2023/06/19 09:18:30;;;;;;;11.13;8.70;;;;;;;27.34;37.56;98948.13;5045713;28;20061;-73
2023/06/19 09:20:57;;;;;;;9.95;8.68;;;;;;;27.89;37.25;99000.75;5044227;28;20040;-73
2023/06/19 09:23:24;;;;;;;9.57;8.00;;;;;;;27.81;37.20;99004.47;5044334;28;20236;-73
2023/06/19 09:25:54;;;;;;;10.60;7.60;;;;;;;27.85;36.62;98999.47;5045395;28;20061;-73
2023/06/19 09:28:22;;;;;;;8.32;7.38;;;;;;;27.96;36.66;99006.22;5045578;28;20099;-73
2023/06/19 09:30:57;;;;;;;10.80;7.80;;;;;;;27.71;36.30;99001.28;5044017;28;20043;-73
2023/06/19 09:33:24;;;;;;;8.23;7.43;;;;;;;27.69;36.27;99005.25;5045311;28;20053;-73
2023/06/19 09:35:51;;;;;;;14.02;8.27;;;;;;;27.83;36.28;98995.25;5045587;28;20045;-73
2023/06/19 09:38:19;;;;;;;8.00;7.28;;;;;;;27.54;36.29;98959.09;5044920;28;20037;-73
2023/06/19 09:40:47;;;;;;;14.40;8.90;;;;;;;27.95;36.01;98999.09;5044032;28;20038;-73
2023/06/19 09:43:19;;;;;;;9.38;8.25;;;;;;;27.95;36.39;99002.66;5043939;28;20041;-73
2023/06/19 09:45:49;;;;;;;11.93;7.60;;;;;;;27.86;36.94;99001.16;5045201;28;20049;-73
2023/06/19 09:48:18;;;;;;;8.68;7.03;;;;;;;27.98;37.01;99012.31;5045195;28;20297;-73
2023/06/19 09:50:47;;;;;;;8.07;7.25;;;;;;;28.03;35.77;99010.66;5045319;28;20273;-73
2023/06/19 09:53:13;;;;;;;10.02;6.90;;;;;;;28.11;35.58;99002.28;5044921;28;20044;-73
2023/06/19 09:55:41;;;;;;;9.48;7.55;;;;;;;28.06;36.18;99007.50;5045353;28;20045;-73
2023/06/19 09:58:08;;;;;;;7.57;6.85;;;;;;;27.97;35.99;99003.28;5045413;28;20099;-73
2023/06/19 10:00:37;;;;;;;8.15;7.35;;;;;;;28.02;35.46;99005.41;5043869;28;20310;-73
2023/06/19 10:03:05;;;;;;;7.80;7.00;;;;;;;28.18;35.96;98999.56;5047523;28;20041;-73
2023/06/19 10:05:33;;;;;;;8.93;6.93;;;;;;;28.24;35.75;98992.47;5048205;28;20037;-73
2023/06/19 10:08:01;;;;;;;8.27;7.47;;;;;;;28.30;35.46;99002.53;5048544;28;20197;-72
2023/06/19 10:10:29;;;;;;;10.07;8.07;;;;;;;28.19;35.90;98990.34;5048404;28;20069;-73
2023/06/19 10:12:58;;;;;;;9.95;6.90;;;;;;;28.29;35.75;98993.53;5048523;28;20124;-73
2023/06/19 10:15:26;;;;;;;8.00;7.20;;;;;;;28.34;36.33;98999.19;5048750;28;20045;-73
2023/06/19 10:18:01;;;;;;;8.30;7.35;;;;;;;28.48;35.59;98986.44;5048400;28;20045;-73
2023/06/19 10:20:31;;;;;;;11.30;7.70;;;;;;;28.58;35.21;98983.31;5048842;28;20055;-73
2023/06/19 10:23:04;;;;;;;7.18;6.47;;;;;;;28.41;35.03;98986.41;5048367;28;20048;-73
2023/06/19 10:25:33;;;;;;;8.60;6.45;;;;;;;28.38;34.99;98981.38;5048451;28;20056;-73
2023/06/19 10:28:01;;;;;;;10.57;6.85;;;;;;;28.47;35.80;98976.59;5047899;28;20179;-73
2023/06/19 10:30:29;;;;;;;9.48;7.18;;;;;;;28.66;35.49;98983.09;5047803;28;20198;-73
2023/06/19 10:32:58;;;;;;;8.18;6.75;;;;;;;28.68;35.04;98986.44;5048098;28;20041;-73
2023/06/19 10:35:26;;;;;;;8.05;6.88;;;;;;;28.70;34.92;98982.47;5047796;28;20041;-73
2023/06/19 10:37:52;;;;;;;9.20;8.35;;;;;;;28.89;34.09;98979.94;5048076;28;20052;-73
2023/06/19 10:40:19;;;;;;;9.50;7.10;;;;;;;28.82;34.71;98981.84;5047704;28;20080;-73
2023/06/19 10:42:46;;;;;;;7.78;6.88;;;;;;;28.82;34.51;98982.66;5047515;28;20057;-73
2023/06/19 10:45:15;;;;;;;8.77;7.03;;;;;;;28.91;34.58;98981.41;5047562;28;20045;-73
2023/06/19 10:47:42;;;;;;;9.60;7.13;;;;;;;28.95;34.22;98987.28;5048086;28;20136;-73
2023/06/19 10:50:15;;;;;;;8.73;7.38;;;;;;;29.08;35.17;98988.13;5047868;28;20103;-73
2023/06/19 10:52:43;;;;;;;7.47;6.75;;;;;;;28.81;35.17;98947.44;5047756;28;20049;-73
2023/06/19 10:55:11;;;;;;;8.25;6.75;;;;;;;28.99;35.00;98981.19;5047344;28;20041;-74
2023/06/19 10:57:38;;;;;;;9.35;7.65;;;;;;;29.15;34.79;98984.53;5048056;28;20229;-74
2023/06/19 11:00:14;;;;;;;7.65;6.82;;;;;;;29.21;33.68;98980.97;5047498;28;20257;-73
2023/06/19 11:02:43;;;;;;;8.18;6.65;;;;;;;29.17;34.05;98977.81;5047655;28;20240;-74
2023/06/19 11:05:11;;;;;;;7.57;6.78;;;;;;;29.15;33.48;98987.28;5047454;28;20104;-74
2023/06/19 11:07:39;;;;;;;10.10;6.90;;;;;;;29.00;33.63;98974.69;5047586;28;20038;-73
2023/06/19 11:10:07;;;;;;;7.53;6.72;;;;;;;29.01;32.85;98979.13;5047637;28;20037;-74
2023/06/19 11:12:35;;;;;;;14.55;7.35;;;;;;;29.10;32.89;98974.28;5047405;28;20052;-74
2023/06/19 11:15:04;;;;;;;13.48;8.10;;;;;;;29.14;33.09;98969.22;5046330;28;20072;-74
2023/06/19 11:17:31;;;;;;;7.07;6.38;;;;;;;29.04;33.11;98975.97;5046150;28;20069;-74
2023/06/19 11:19:59;;;;;;;8.30;6.93;;;;;;;29.07;33.75;98972.81;5047086;28;20053;-74
2023/06/19 11:22:37;;;;;;;8.40;6.10;;;;;;;29.10;32.83;98970.72;5046157;28;20049;-74
2023/06/19 11:25:06;;;;;;;7.00;6.15;;;;;;;29.02;33.46;98949.94;5047054;28;20046;-74
2023/06/19 11:27:34;;;;;;;8.60;6.22;;;;;;;29.12;32.67;98968.59;5046969;28;20059;-74
2023/06/19 11:30:04;;;;;;;8.82;6.10;;;;;;;28.84;32.21;98909.66;5047511;28;20033;-74